sensor_id;sensor_type;location;lat;lon;timestamp;temperature;humidity
58993;DHT22;44782;0.000;0.000;2022-12-07T00:02:03;16.30;48.80
58993;DHT22;44782;0.000;0.000;2022-12-07T00:04:18;16.30;48.90
58993;DHT22;44782;0.000;0.000;2022-12-07T00:06:42;16.30;48.90
58993;DHT22;44782;0.000;0.000;2022-12-07T00:08:58;16.30;48.70
58993;DHT22;44782;0.000;0.000;2022-12-07T00:11:16;16.30;48.80
58993;DHT22;44782;0.000;0.000;2022-12-07T00:13:33;16.20;48.70
58993;DHT22;44782;0.000;0.000;2022-12-07T00:15:49;16.20;48.80
58993;DHT22;44782;0.000;0.000;2022-12-07T00:18:05;16.20;48.80
58993;DHT22;44782;0.000;0.000;2022-12-07T00:20:21;16.10;48.70
58993;DHT22;44782;0.000;0.000;2022-12-07T00:22:36;16.10;48.70
58993;DHT22;44782;0.000;0.000;2022-12-07T00:24:52;16.10;48.70
58993;DHT22;44782;0.000;0.000;2022-12-07T00:27:07;16.10;48.70
58993;DHT22;44782;0.000;0.000;2022-12-07T00:29:23;16.10;49.40
58993;DHT22;44782;0.000;0.000;2022-12-07T00:31:39;16.00;48.70
58993;DHT22;44782;0.000;0.000;2022-12-07T00:33:54;16.00;48.80
58993;DHT22;44782;0.000;0.000;2022-12-07T00:36:14;16.00;48.80
58993;DHT22;44782;0.000;0.000;2022-12-07T00:38:31;16.00;48.70
58993;DHT22;44782;0.000;0.000;2022-12-07T00:40:55;15.90;48.80
58993;DHT22;44782;0.000;0.000;2022-12-07T00:43:11;15.90;48.70
58993;DHT22;44782;0.000;0.000;2022-12-07T00:45:26;15.90;48.80
58993;DHT22;44782;0.000;0.000;2022-12-07T00:47:42;15.90;48.80
58993;DHT22;44782;0.000;0.000;2022-12-07T00:49:57;15.80;48.80
58993;DHT22;44782;0.000;0.000;2022-12-07T00:52:13;15.80;48.80
58993;DHT22;44782;0.000;0.000;2022-12-07T00:54:29;15.90;48.90
58993;DHT22;44782;0.000;0.000;2022-12-07T00:56:45;15.90;48.90
58993;DHT22;44782;0.000;0.000;2022-12-07T00:59:02;15.90;48.80
58993;DHT22;44782;0.000;0.000;2022-12-07T01:01:18;15.80;48.80
58993;DHT22;44782;0.000;0.000;2022-12-07T01:03:34;15.90;48.80
58993;DHT22;44782;0.000;0.000;2022-12-07T01:05:52;15.90;48.80
58993;DHT22;44782;0.000;0.000;2022-12-07T01:08:08;15.90;48.80
58993;DHT22;44782;0.000;0.000;2022-12-07T01:10:24;15.90;48.70
58993;DHT22;44782;0.000;0.000;2022-12-07T01:12:40;15.90;48.70
58993;DHT22;44782;0.000;0.000;2022-12-07T01:14:56;15.90;48.60
58993;DHT22;44782;0.000;0.000;2022-12-07T01:17:11;15.90;48.60
58993;DHT22;44782;0.000;0.000;2022-12-07T01:19:27;16.00;48.70
58993;DHT22;44782;0.000;0.000;2022-12-07T01:21:43;15.90;48.60
58993;DHT22;44782;0.000;0.000;2022-12-07T01:23:58;16.00;48.60
58993;DHT22;44782;0.000;0.000;2022-12-07T01:26:18;16.00;48.50
58993;DHT22;44782;0.000;0.000;2022-12-07T01:28:34;16.00;48.50
58993;DHT22;44782;0.000;0.000;2022-12-07T01:30:58;16.00;48.40
58993;DHT22;44782;0.000;0.000;2022-12-07T01:33:14;16.00;48.30
58993;DHT22;44782;0.000;0.000;2022-12-07T01:35:29;16.00;48.40
58993;DHT22;44782;0.000;0.000;2022-12-07T01:37:48;16.00;48.30
58993;DHT22;44782;0.000;0.000;2022-12-07T01:40:06;16.00;48.30
58993;DHT22;44782;0.000;0.000;2022-12-07T01:42:22;16.10;48.30
58993;DHT22;44782;0.000;0.000;2022-12-07T01:47:31;16.10;48.00
58993;DHT22;44782;0.000;0.000;2022-12-07T01:49:48;16.10;48.30
58993;DHT22;44782;0.000;0.000;2022-12-07T01:52:23;16.10;48.20
58993;DHT22;44782;0.000;0.000;2022-12-07T01:54:39;16.10;48.00
58993;DHT22;44782;0.000;0.000;2022-12-07T01:56:57;16.10;48.20
58993;DHT22;44782;0.000;0.000;2022-12-07T01:59:13;16.10;48.10
58993;DHT22;44782;0.000;0.000;2022-12-07T02:01:32;16.10;48.00
58993;DHT22;44782;0.000;0.000;2022-12-07T02:03:48;16.10;48.00
58993;DHT22;44782;0.000;0.000;2022-12-07T02:06:05;16.20;48.00
58993;DHT22;44782;0.000;0.000;2022-12-07T02:08:21;16.20;48.00
58993;DHT22;44782;0.000;0.000;2022-12-07T02:10:37;16.20;47.90
58993;DHT22;44782;0.000;0.000;2022-12-07T02:15:21;16.20;47.80
58993;DHT22;44782;0.000;0.000;2022-12-07T02:23:07;16.20;47.70
58993;DHT22;44782;0.000;0.000;2022-12-07T02:28:19;16.30;47.60
58993;DHT22;44782;0.000;0.000;2022-12-07T02:30:45;16.30;47.60
58993;DHT22;44782;0.000;0.000;2022-12-07T02:33:18;16.30;47.60
58993;DHT22;44782;0.000;0.000;2022-12-07T02:35:56;16.30;47.40
58993;DHT22;44782;0.000;0.000;2022-12-07T02:42:58;16.30;47.50
58993;DHT22;44782;0.000;0.000;2022-12-07T02:45:21;16.30;47.40
58993;DHT22;44782;0.000;0.000;2022-12-07T02:47:38;16.30;47.50
58993;DHT22;44782;0.000;0.000;2022-12-07T02:49:55;16.30;47.40
58993;DHT22;44782;0.000;0.000;2022-12-07T02:52:11;16.30;47.40
58993;DHT22;44782;0.000;0.000;2022-12-07T02:54:26;16.30;47.40
58993;DHT22;44782;0.000;0.000;2022-12-07T03:07:43;16.30;47.30
58993;DHT22;44782;0.000;0.000;2022-12-07T03:12:53;16.20;47.10
58993;DHT22;44782;0.000;0.000;2022-12-07T03:15:18;16.20;47.20
58993;DHT22;44782;0.000;0.000;2022-12-07T03:17:39;16.20;47.30
58993;DHT22;44782;0.000;0.000;2022-12-07T03:20:02;16.10;47.30
58993;DHT22;44782;0.000;0.000;2022-12-07T03:22:18;16.10;47.20
58993;DHT22;44782;0.000;0.000;2022-12-07T03:24:43;16.10;47.30
58993;DHT22;44782;0.000;0.000;2022-12-07T03:27:11;16.10;47.30
58993;DHT22;44782;0.000;0.000;2022-12-07T03:29:34;16.10;47.40
58993;DHT22;44782;0.000;0.000;2022-12-07T03:31:57;16.00;47.30
58993;DHT22;44782;0.000;0.000;2022-12-07T03:34:39;16.00;47.40
58993;DHT22;44782;0.000;0.000;2022-12-07T03:40:14;15.90;47.40
58993;DHT22;44782;0.000;0.000;2022-12-07T03:42:29;15.90;47.70
58993;DHT22;44782;0.000;0.000;2022-12-07T03:44:45;15.90;47.60
58993;DHT22;44782;0.000;0.000;2022-12-07T03:47:27;15.90;47.60
58993;DHT22;44782;0.000;0.000;2022-12-07T03:49:59;15.90;47.40
58993;DHT22;44782;0.000;0.000;2022-12-07T03:52:24;15.90;47.50
58993;DHT22;44782;0.000;0.000;2022-12-07T03:57:04;15.80;47.50
58993;DHT22;44782;0.000;0.000;2022-12-07T03:59:21;15.80;47.60
58993;DHT22;44782;0.000;0.000;2022-12-07T04:01:37;15.90;47.60
58993;DHT22;44782;0.000;0.000;2022-12-07T04:03:53;15.90;47.60
58993;DHT22;44782;0.000;0.000;2022-12-07T04:06:08;15.90;47.60
58993;DHT22;44782;0.000;0.000;2022-12-07T04:08:24;15.90;47.60
58993;DHT22;44782;0.000;0.000;2022-12-07T04:10:40;15.90;47.50
58993;DHT22;44782;0.000;0.000;2022-12-07T04:12:56;15.90;47.50
58993;DHT22;44782;0.000;0.000;2022-12-07T04:15:12;15.90;47.50
58993;DHT22;44782;0.000;0.000;2022-12-07T04:17:27;15.90;47.50
58993;DHT22;44782;0.000;0.000;2022-12-07T04:19:43;15.90;47.50
58993;DHT22;44782;0.000;0.000;2022-12-07T04:22:00;16.00;47.50
58993;DHT22;44782;0.000;0.000;2022-12-07T04:24:16;16.00;47.40
58993;DHT22;44782;0.000;0.000;2022-12-07T04:26:32;16.00;47.50
58993;DHT22;44782;0.000;0.000;2022-12-07T04:28:47;16.00;47.40
58993;DHT22;44782;0.000;0.000;2022-12-07T04:31:03;16.00;47.40
58993;DHT22;44782;0.000;0.000;2022-12-07T04:33:19;16.00;47.30
58993;DHT22;44782;0.000;0.000;2022-12-07T04:35:34;16.00;47.30
58993;DHT22;44782;0.000;0.000;2022-12-07T04:37:50;16.10;47.30
58993;DHT22;44782;0.000;0.000;2022-12-07T04:40:07;16.10;47.40
58993;DHT22;44782;0.000;0.000;2022-12-07T04:42:24;16.10;47.20
58993;DHT22;44782;0.000;0.000;2022-12-07T04:44:39;16.10;47.30
58993;DHT22;44782;0.000;0.000;2022-12-07T04:46:55;16.10;47.20
58993;DHT22;44782;0.000;0.000;2022-12-07T04:49:13;16.10;47.20
58993;DHT22;44782;0.000;0.000;2022-12-07T04:51:29;16.10;47.10
58993;DHT22;44782;0.000;0.000;2022-12-07T04:53:44;16.10;47.10
58993;DHT22;44782;0.000;0.000;2022-12-07T04:56:00;16.20;47.10
58993;DHT22;44782;0.000;0.000;2022-12-07T04:58:16;16.20;47.10
58993;DHT22;44782;0.000;0.000;2022-12-07T05:00:32;16.20;47.10
58993;DHT22;44782;0.000;0.000;2022-12-07T05:02:47;16.20;47.00
58993;DHT22;44782;0.000;0.000;2022-12-07T05:05:03;16.20;47.00
58993;DHT22;44782;0.000;0.000;2022-12-07T05:07:19;16.20;47.00
58993;DHT22;44782;0.000;0.000;2022-12-07T05:09:35;16.20;46.90
58993;DHT22;44782;0.000;0.000;2022-12-07T05:11:50;16.30;47.00
58993;DHT22;44782;0.000;0.000;2022-12-07T05:14:12;16.30;46.90
58993;DHT22;44782;0.000;0.000;2022-12-07T05:16:28;16.30;46.80
58993;DHT22;44782;0.000;0.000;2022-12-07T05:18:44;16.30;46.90
58993;DHT22;44782;0.000;0.000;2022-12-07T05:21:00;16.30;46.90
58993;DHT22;44782;0.000;0.000;2022-12-07T05:23:15;16.30;46.80
58993;DHT22;44782;0.000;0.000;2022-12-07T05:25:31;16.30;46.80
58993;DHT22;44782;0.000;0.000;2022-12-07T05:27:47;16.30;46.80
58993;DHT22;44782;0.000;0.000;2022-12-07T05:30:03;16.30;46.70
58993;DHT22;44782;0.000;0.000;2022-12-07T05:32:19;16.30;46.70
58993;DHT22;44782;0.000;0.000;2022-12-07T05:34:35;16.30;46.70
58993;DHT22;44782;0.000;0.000;2022-12-07T05:36:50;16.40;46.70
58993;DHT22;44782;0.000;0.000;2022-12-07T05:39:07;16.30;46.70
58993;DHT22;44782;0.000;0.000;2022-12-07T05:41:23;16.40;46.70
58993;DHT22;44782;0.000;0.000;2022-12-07T05:43:57;16.30;46.60
58993;DHT22;44782;0.000;0.000;2022-12-07T05:46:13;16.30;46.70
58993;DHT22;44782;0.000;0.000;2022-12-07T05:48:31;16.30;46.60
58993;DHT22;44782;0.000;0.000;2022-12-07T05:50:50;16.30;46.60
58993;DHT22;44782;0.000;0.000;2022-12-07T05:53:06;16.30;47.30
58993;DHT22;44782;0.000;0.000;2022-12-07T05:55:21;16.30;46.60
58993;DHT22;44782;0.000;0.000;2022-12-07T05:57:37;16.30;46.60
58993;DHT22;44782;0.000;0.000;2022-12-07T05:59:53;16.30;46.60
58993;DHT22;44782;0.000;0.000;2022-12-07T06:02:11;16.20;46.60
58993;DHT22;44782;0.000;0.000;2022-12-07T06:04:29;16.20;46.60
58993;DHT22;44782;0.000;0.000;2022-12-07T06:06:44;16.20;46.60
58993;DHT22;44782;0.000;0.000;2022-12-07T06:09:00;16.10;46.70
58993;DHT22;44782;0.000;0.000;2022-12-07T06:11:19;16.10;46.70
58993;DHT22;44782;0.000;0.000;2022-12-07T06:13:53;16.10;46.70
58993;DHT22;44782;0.000;0.000;2022-12-07T06:16:09;16.10;46.80
58993;DHT22;44782;0.000;0.000;2022-12-07T06:18:24;16.10;46.70
58993;DHT22;44782;0.000;0.000;2022-12-07T06:20:40;16.00;46.90
58993;DHT22;44782;0.000;0.000;2022-12-07T06:22:56;16.00;46.80
58993;DHT22;44782;0.000;0.000;2022-12-07T06:25:11;16.00;46.80
58993;DHT22;44782;0.000;0.000;2022-12-07T06:27:27;16.00;47.10
58993;DHT22;44782;0.000;0.000;2022-12-07T06:29:43;16.00;46.80
58993;DHT22;44782;0.000;0.000;2022-12-07T06:31:59;16.00;46.90
58993;DHT22;44782;0.000;0.000;2022-12-07T06:34:17;16.00;46.90
58993;DHT22;44782;0.000;0.000;2022-12-07T06:36:33;16.00;46.90
58993;DHT22;44782;0.000;0.000;2022-12-07T06:38:49;16.00;46.90
58993;DHT22;44782;0.000;0.000;2022-12-07T06:41:04;16.00;46.90
58993;DHT22;44782;0.000;0.000;2022-12-07T06:43:20;16.00;46.90
58993;DHT22;44782;0.000;0.000;2022-12-07T06:45:35;16.00;46.90
58993;DHT22;44782;0.000;0.000;2022-12-07T06:47:51;16.00;46.90
58993;DHT22;44782;0.000;0.000;2022-12-07T06:50:07;16.10;46.90
58993;DHT22;44782;0.000;0.000;2022-12-07T06:52:23;16.00;46.80
58993;DHT22;44782;0.000;0.000;2022-12-07T06:54:39;16.00;46.80
58993;DHT22;44782;0.000;0.000;2022-12-07T06:56:54;16.10;46.80
58993;DHT22;44782;0.000;0.000;2022-12-07T06:59:10;16.10;46.80
58993;DHT22;44782;0.000;0.000;2022-12-07T07:01:26;16.10;46.80
58993;DHT22;44782;0.000;0.000;2022-12-07T07:03:42;16.10;46.80
58993;DHT22;44782;0.000;0.000;2022-12-07T07:05:57;16.10;46.80
58993;DHT22;44782;0.000;0.000;2022-12-07T07:10:28;16.10;46.70
58993;DHT22;44782;0.000;0.000;2022-12-07T07:12:44;16.20;46.80
58993;DHT22;44782;0.000;0.000;2022-12-07T07:15:00;16.10;46.70
58993;DHT22;44782;0.000;0.000;2022-12-07T07:17:15;16.20;46.70
58993;DHT22;44782;0.000;0.000;2022-12-07T07:19:31;16.20;46.70
58993;DHT22;44782;0.000;0.000;2022-12-07T07:21:46;16.20;46.60
58993;DHT22;44782;0.000;0.000;2022-12-07T07:24:02;16.20;46.60
58993;DHT22;44782;0.000;0.000;2022-12-07T07:26:18;16.30;46.60
58993;DHT22;44782;0.000;0.000;2022-12-07T07:28:33;16.30;46.60
58993;DHT22;44782;0.000;0.000;2022-12-07T07:30:49;16.30;46.50
58993;DHT22;44782;0.000;0.000;2022-12-07T07:33:05;16.30;46.60
58993;DHT22;44782;0.000;0.000;2022-12-07T07:35:20;16.30;46.50
58993;DHT22;44782;0.000;0.000;2022-12-07T07:37:36;16.30;46.50
58993;DHT22;44782;0.000;0.000;2022-12-07T07:39:53;16.30;46.50
58993;DHT22;44782;0.000;0.000;2022-12-07T07:42:09;16.30;46.50
58993;DHT22;44782;0.000;0.000;2022-12-07T07:44:24;16.40;46.60
58993;DHT22;44782;0.000;0.000;2022-12-07T07:46:40;16.30;46.50
58993;DHT22;44782;0.000;0.000;2022-12-07T07:48:56;16.30;46.50
58993;DHT22;44782;0.000;0.000;2022-12-07T07:51:11;16.30;46.50
58993;DHT22;44782;0.000;0.000;2022-12-07T07:53:27;16.30;46.40
58993;DHT22;44782;0.000;0.000;2022-12-07T07:55:50;16.30;46.50
58993;DHT22;44782;0.000;0.000;2022-12-07T07:58:07;16.30;46.40
58993;DHT22;44782;0.000;0.000;2022-12-07T08:00:23;16.30;46.50
58993;DHT22;44782;0.000;0.000;2022-12-07T08:02:39;16.30;46.50
58993;DHT22;44782;0.000;0.000;2022-12-07T08:04:55;16.30;46.50
58993;DHT22;44782;0.000;0.000;2022-12-07T08:07:11;16.30;46.50
58993;DHT22;44782;0.000;0.000;2022-12-07T08:09:27;16.30;46.50
58993;DHT22;44782;0.000;0.000;2022-12-07T08:11:43;16.20;46.50
58993;DHT22;44782;0.000;0.000;2022-12-07T08:13:58;16.20;46.50
58993;DHT22;44782;0.000;0.000;2022-12-07T08:16:14;16.20;46.50
58993;DHT22;44782;0.000;0.000;2022-12-07T08:18:30;16.10;46.50
58993;DHT22;44782;0.000;0.000;2022-12-07T08:20:46;16.10;46.50
58993;DHT22;44782;0.000;0.000;2022-12-07T08:23:01;16.10;46.60
58993;DHT22;44782;0.000;0.000;2022-12-07T08:25:18;16.10;46.60
58993;DHT22;44782;0.000;0.000;2022-12-07T08:27:34;16.10;46.60
58993;DHT22;44782;0.000;0.000;2022-12-07T08:29:49;16.00;46.60
58993;DHT22;44782;0.000;0.000;2022-12-07T08:32:05;16.00;46.60
58993;DHT22;44782;0.000;0.000;2022-12-07T08:34:20;16.00;46.70
58993;DHT22;44782;0.000;0.000;2022-12-07T08:36:36;16.00;46.70
58993;DHT22;44782;0.000;0.000;2022-12-07T08:38:52;15.90;46.70
58993;DHT22;44782;0.000;0.000;2022-12-07T08:41:08;15.90;46.70
58993;DHT22;44782;0.000;0.000;2022-12-07T08:43:24;15.90;46.80
58993;DHT22;44782;0.000;0.000;2022-12-07T08:45:42;15.90;46.80
58993;DHT22;44782;0.000;0.000;2022-12-07T08:48:07;15.90;46.80
58993;DHT22;44782;0.000;0.000;2022-12-07T08:50:25;15.80;46.80
58993;DHT22;44782;0.000;0.000;2022-12-07T08:52:41;15.80;46.90
58993;DHT22;44782;0.000;0.000;2022-12-07T08:55:00;15.80;46.90
58993;DHT22;44782;0.000;0.000;2022-12-07T08:57:16;15.70;46.90
58993;DHT22;44782;0.000;0.000;2022-12-07T08:59:33;15.70;47.70
58993;DHT22;44782;0.000;0.000;2022-12-07T09:01:50;15.70;47.10
58993;DHT22;44782;0.000;0.000;2022-12-07T09:04:05;15.70;47.00
58993;DHT22;44782;0.000;0.000;2022-12-07T09:06:21;15.60;47.10
58993;DHT22;44782;0.000;0.000;2022-12-07T09:08:40;15.60;47.10
58993;DHT22;44782;0.000;0.000;2022-12-07T09:10:58;15.60;47.20
58993;DHT22;44782;0.000;0.000;2022-12-07T09:13:14;15.60;47.20
58993;DHT22;44782;0.000;0.000;2022-12-07T09:15:30;15.50;47.20
58993;DHT22;44782;0.000;0.000;2022-12-07T09:17:46;15.50;47.20
58993;DHT22;44782;0.000;0.000;2022-12-07T09:20:04;15.50;47.30
58993;DHT22;44782;0.000;0.000;2022-12-07T09:22:20;15.50;47.30
58993;DHT22;44782;0.000;0.000;2022-12-07T09:24:35;15.50;47.40
58993;DHT22;44782;0.000;0.000;2022-12-07T09:26:51;15.40;47.40
58993;DHT22;44782;0.000;0.000;2022-12-07T09:29:07;15.40;47.40
58993;DHT22;44782;0.000;0.000;2022-12-07T09:31:22;15.40;47.40
58993;DHT22;44782;0.000;0.000;2022-12-07T09:33:38;15.40;47.30
58993;DHT22;44782;0.000;0.000;2022-12-07T09:35:54;15.40;47.40
58993;DHT22;44782;0.000;0.000;2022-12-07T09:38:09;15.40;47.40
58993;DHT22;44782;0.000;0.000;2022-12-07T09:40:25;15.30;47.40
58993;DHT22;44782;0.000;0.000;2022-12-07T09:42:48;15.30;47.40
58993;DHT22;44782;0.000;0.000;2022-12-07T09:45:06;15.30;47.40
58993;DHT22;44782;0.000;0.000;2022-12-07T09:47:23;15.30;47.40
58993;DHT22;44782;0.000;0.000;2022-12-07T09:49:38;15.30;47.50
58993;DHT22;44782;0.000;0.000;2022-12-07T09:52:19;15.30;47.50
58993;DHT22;44782;0.000;0.000;2022-12-07T09:54:39;15.20;47.50
58993;DHT22;44782;0.000;0.000;2022-12-07T09:56:56;15.20;47.60
58993;DHT22;44782;0.000;0.000;2022-12-07T09:59:16;15.20;47.60
58993;DHT22;44782;0.000;0.000;2022-12-07T10:01:33;15.20;47.50
58993;DHT22;44782;0.000;0.000;2022-12-07T10:03:58;15.10;47.60
58993;DHT22;44782;0.000;0.000;2022-12-07T10:06:14;15.10;47.60
58993;DHT22;44782;0.000;0.000;2022-12-07T10:08:30;15.10;47.60
58993;DHT22;44782;0.000;0.000;2022-12-07T10:10:48;15.10;47.70
58993;DHT22;44782;0.000;0.000;2022-12-07T10:13:17;15.10;47.80
58993;DHT22;44782;0.000;0.000;2022-12-07T10:16:03;15.10;47.70
58993;DHT22;44782;0.000;0.000;2022-12-07T10:20:47;15.00;47.70
58993;DHT22;44782;0.000;0.000;2022-12-07T10:23:07;15.00;47.80
58993;DHT22;44782;0.000;0.000;2022-12-07T10:25:34;15.00;47.80
58993;DHT22;44782;0.000;0.000;2022-12-07T10:28:10;14.90;47.80
58993;DHT22;44782;0.000;0.000;2022-12-07T10:30:27;14.90;47.80
58993;DHT22;44782;0.000;0.000;2022-12-07T10:32:42;14.90;47.90
58993;DHT22;44782;0.000;0.000;2022-12-07T10:35:24;14.90;47.90
58993;DHT22;44782;0.000;0.000;2022-12-07T10:37:41;14.90;48.00
58993;DHT22;44782;0.000;0.000;2022-12-07T10:39:57;14.80;48.00
58993;DHT22;44782;0.000;0.000;2022-12-07T10:44:33;14.80;48.10
58993;DHT22;44782;0.000;0.000;2022-12-07T10:52:10;14.70;48.20
58993;DHT22;44782;0.000;0.000;2022-12-07T10:54:48;14.70;48.20
58993;DHT22;44782;0.000;0.000;2022-12-07T10:57:26;14.70;48.30
58993;DHT22;44782;0.000;0.000;2022-12-07T11:02:38;14.70;48.40
58993;DHT22;44782;0.000;0.000;2022-12-07T11:05:23;14.60;48.40
58993;DHT22;44782;0.000;0.000;2022-12-07T11:15:43;14.50;48.50
58993;DHT22;44782;0.000;0.000;2022-12-07T11:18:14;14.50;48.60
58993;DHT22;44782;0.000;0.000;2022-12-07T11:28:30;14.40;48.60
58993;DHT22;44782;0.000;0.000;2022-12-07T11:35:56;14.50;48.80
58993;DHT22;44782;0.000;0.000;2022-12-07T11:40:51;14.50;48.80
58993;DHT22;44782;0.000;0.000;2022-12-07T11:43:28;14.40;48.80
58993;DHT22;44782;0.000;0.000;2022-12-07T11:46:02;14.40;48.90
58993;DHT22;44782;0.000;0.000;2022-12-07T11:48:45;14.30;48.80
58993;DHT22;44782;0.000;0.000;2022-12-07T11:51:02;14.40;48.90
58993;DHT22;44782;0.000;0.000;2022-12-07T11:53:24;14.30;48.90
58993;DHT22;44782;0.000;0.000;2022-12-07T11:55:54;14.30;48.90
58993;DHT22;44782;0.000;0.000;2022-12-07T11:58:48;14.30;48.90
58993;DHT22;44782;0.000;0.000;2022-12-07T12:03:33;14.20;49.00
58993;DHT22;44782;0.000;0.000;2022-12-07T12:05:49;14.30;49.10
58993;DHT22;44782;0.000;0.000;2022-12-07T12:10:38;14.20;49.00
58993;DHT22;44782;0.000;0.000;2022-12-07T12:20:45;14.20;49.30
58993;DHT22;44782;0.000;0.000;2022-12-07T12:23:13;14.20;49.30
58993;DHT22;44782;0.000;0.000;2022-12-07T12:25:34;14.20;49.30
58993;DHT22;44782;0.000;0.000;2022-12-07T12:27:54;14.10;49.30
58993;DHT22;44782;0.000;0.000;2022-12-07T12:32:42;14.10;49.40
58993;DHT22;44782;0.000;0.000;2022-12-07T12:35:20;14.10;49.40
58993;DHT22;44782;0.000;0.000;2022-12-07T12:37:41;14.10;49.40
58993;DHT22;44782;0.000;0.000;2022-12-07T12:42:44;14.10;49.50
58993;DHT22;44782;0.000;0.000;2022-12-07T12:45:17;14.00;49.50
58993;DHT22;44782;0.000;0.000;2022-12-07T12:47:41;14.00;49.50
58993;DHT22;44782;0.000;0.000;2022-12-07T12:55:11;14.00;49.70
58993;DHT22;44782;0.000;0.000;2022-12-07T12:57:30;13.90;49.70
58993;DHT22;44782;0.000;0.000;2022-12-07T13:07:11;13.90;49.70
58993;DHT22;44782;0.000;0.000;2022-12-07T13:09:31;13.90;49.70
58993;DHT22;44782;0.000;0.000;2022-12-07T13:11:50;13.90;49.80
58993;DHT22;44782;0.000;0.000;2022-12-07T13:14:43;13.90;49.80
58993;DHT22;44782;0.000;0.000;2022-12-07T13:19:54;13.90;50.00
58993;DHT22;44782;0.000;0.000;2022-12-07T13:24:47;13.80;50.00
58993;DHT22;44782;0.000;0.000;2022-12-07T13:27:03;13.80;50.00
58993;DHT22;44782;0.000;0.000;2022-12-07T13:29:23;13.80;50.00
58993;DHT22;44782;0.000;0.000;2022-12-07T13:31:39;13.80;50.10
58993;DHT22;44782;0.000;0.000;2022-12-07T13:33:56;13.80;50.10
58993;DHT22;44782;0.000;0.000;2022-12-07T13:36:20;13.80;50.10
58993;DHT22;44782;0.000;0.000;2022-12-07T13:38:36;13.80;50.10
58993;DHT22;44782;0.000;0.000;2022-12-07T13:41:21;13.80;50.20
58993;DHT22;44782;0.000;0.000;2022-12-07T13:44:10;13.80;50.30
58993;DHT22;44782;0.000;0.000;2022-12-07T13:49:01;13.80;50.20
58993;DHT22;44782;0.000;0.000;2022-12-07T13:51:26;13.80;50.20
58993;DHT22;44782;0.000;0.000;2022-12-07T13:53:51;13.90;50.20
58993;DHT22;44782;0.000;0.000;2022-12-07T13:56:13;13.90;50.20
58993;DHT22;44782;0.000;0.000;2022-12-07T13:58:33;13.90;50.20
58993;DHT22;44782;0.000;0.000;2022-12-07T14:00:49;13.90;50.20
58993;DHT22;44782;0.000;0.000;2022-12-07T14:05:34;14.10;50.20
58993;DHT22;44782;0.000;0.000;2022-12-07T14:08:05;14.10;50.20
58993;DHT22;44782;0.000;0.000;2022-12-07T14:10:35;14.10;50.20
58993;DHT22;44782;0.000;0.000;2022-12-07T14:12:51;14.10;50.10
58993;DHT22;44782;0.000;0.000;2022-12-07T14:15:20;14.10;50.10
58993;DHT22;44782;0.000;0.000;2022-12-07T14:17:53;14.20;50.10
58993;DHT22;44782;0.000;0.000;2022-12-07T14:20:32;14.20;50.00
58993;DHT22;44782;0.000;0.000;2022-12-07T14:22:54;14.20;50.00
58993;DHT22;44782;0.000;0.000;2022-12-07T14:27:33;14.20;50.00
58993;DHT22;44782;0.000;0.000;2022-12-07T14:29:49;14.20;49.90
58993;DHT22;44782;0.000;0.000;2022-12-07T14:32:26;14.20;49.90
58993;DHT22;44782;0.000;0.000;2022-12-07T14:35:10;14.30;49.90
58993;DHT22;44782;0.000;0.000;2022-12-07T14:37:28;14.20;49.90
58993;DHT22;44782;0.000;0.000;2022-12-07T14:39:44;14.20;49.90
58993;DHT22;44782;0.000;0.000;2022-12-07T14:41:59;14.20;49.90
58993;DHT22;44782;0.000;0.000;2022-12-07T14:44:15;14.20;49.90
58993;DHT22;44782;0.000;0.000;2022-12-07T14:46:31;14.20;49.80
58993;DHT22;44782;0.000;0.000;2022-12-07T14:48:46;14.20;49.80
58993;DHT22;44782;0.000;0.000;2022-12-07T14:51:03;14.30;49.90
58993;DHT22;44782;0.000;0.000;2022-12-07T14:53:25;14.20;49.80
58993;DHT22;44782;0.000;0.000;2022-12-07T14:55:44;14.20;49.90
58993;DHT22;44782;0.000;0.000;2022-12-07T14:58:00;14.20;49.80
58993;DHT22;44782;0.000;0.000;2022-12-07T15:00:17;14.20;49.90
58993;DHT22;44782;0.000;0.000;2022-12-07T15:02:33;14.20;49.80
58993;DHT22;44782;0.000;0.000;2022-12-07T15:04:48;14.20;49.90
58993;DHT22;44782;0.000;0.000;2022-12-07T15:07:09;14.20;49.90
58993;DHT22;44782;0.000;0.000;2022-12-07T15:09:25;14.20;50.00
58993;DHT22;44782;0.000;0.000;2022-12-07T15:11:41;14.20;50.00
58993;DHT22;44782;0.000;0.000;2022-12-07T15:13:57;14.20;50.00
58993;DHT22;44782;0.000;0.000;2022-12-07T15:16:26;14.20;50.00
58993;DHT22;44782;0.000;0.000;2022-12-07T15:18:41;14.20;50.00
58993;DHT22;44782;0.000;0.000;2022-12-07T15:20:57;14.20;50.00
58993;DHT22;44782;0.000;0.000;2022-12-07T15:23:13;14.20;50.00
58993;DHT22;44782;0.000;0.000;2022-12-07T15:25:29;14.20;50.00
58993;DHT22;44782;0.000;0.000;2022-12-07T15:27:45;14.10;50.00
58993;DHT22;44782;0.000;0.000;2022-12-07T15:30:00;14.10;50.00
58993;DHT22;44782;0.000;0.000;2022-12-07T15:32:16;14.10;50.00
58993;DHT22;44782;0.000;0.000;2022-12-07T15:34:31;14.10;50.10
58993;DHT22;44782;0.000;0.000;2022-12-07T15:36:47;14.10;50.10
58993;DHT22;44782;0.000;0.000;2022-12-07T15:39:03;14.10;50.10
58993;DHT22;44782;0.000;0.000;2022-12-07T15:41:19;14.10;50.10
58993;DHT22;44782;0.000;0.000;2022-12-07T15:43:36;14.10;50.20
58993;DHT22;44782;0.000;0.000;2022-12-07T15:46:10;14.00;50.10
58993;DHT22;44782;0.000;0.000;2022-12-07T15:48:26;14.00;50.20
58993;DHT22;44782;0.000;0.000;2022-12-07T15:50:41;14.00;50.20
58993;DHT22;44782;0.000;0.000;2022-12-07T15:52:57;14.00;50.20
58993;DHT22;44782;0.000;0.000;2022-12-07T15:55:12;14.00;50.20
58993;DHT22;44782;0.000;0.000;2022-12-07T15:57:29;14.00;50.30
58993;DHT22;44782;0.000;0.000;2022-12-07T15:59:44;14.00;50.30
58993;DHT22;44782;0.000;0.000;2022-12-07T16:02:00;14.00;50.30
58993;DHT22;44782;0.000;0.000;2022-12-07T16:04:16;13.90;50.30
58993;DHT22;44782;0.000;0.000;2022-12-07T16:06:31;13.90;50.30
58993;DHT22;44782;0.000;0.000;2022-12-07T16:08:47;13.90;50.40
58993;DHT22;44782;0.000;0.000;2022-12-07T16:11:05;13.90;50.40
58993;DHT22;44782;0.000;0.000;2022-12-07T16:13:21;13.90;50.40
58993;DHT22;44782;0.000;0.000;2022-12-07T16:15:41;13.90;50.40
58993;DHT22;44782;0.000;0.000;2022-12-07T16:17:57;13.90;50.40
58993;DHT22;44782;0.000;0.000;2022-12-07T16:20:12;13.90;50.40
58993;DHT22;44782;0.000;0.000;2022-12-07T16:22:28;13.90;50.50
58993;DHT22;44782;0.000;0.000;2022-12-07T16:24:44;13.80;50.50
58993;DHT22;44782;0.000;0.000;2022-12-07T16:26:59;13.80;50.50
58993;DHT22;44782;0.000;0.000;2022-12-07T16:29:16;13.80;50.50
58993;DHT22;44782;0.000;0.000;2022-12-07T16:31:32;13.80;50.50
58993;DHT22;44782;0.000;0.000;2022-12-07T16:33:49;13.80;50.50
58993;DHT22;44782;0.000;0.000;2022-12-07T16:36:06;13.80;50.60
58993;DHT22;44782;0.000;0.000;2022-12-07T16:38:22;13.70;50.60
58993;DHT22;44782;0.000;0.000;2022-12-07T16:40:38;13.70;50.60
58993;DHT22;44782;0.000;0.000;2022-12-07T16:42:53;13.80;50.70
58993;DHT22;44782;0.000;0.000;2022-12-07T16:45:09;13.70;50.70
58993;DHT22;44782;0.000;0.000;2022-12-07T16:47:26;13.70;50.60
58993;DHT22;44782;0.000;0.000;2022-12-07T16:49:42;13.70;50.70
58993;DHT22;44782;0.000;0.000;2022-12-07T16:51:58;13.70;50.70